createdAt,value
2023-04-14T00:04:11.573Z,38.79
2023-04-14T00:14:13.105Z,38.85
2023-04-14T00:24:14.699Z,38.88
2023-04-14T00:34:16.260Z,39.00
2023-04-14T00:44:17.724Z,39.17
2023-04-14T00:54:20.266Z,39.09
2023-04-14T01:04:21.943Z,39.13
2023-04-14T01:15:02.114Z,39.21
2023-04-14T01:25:09.660Z,39.19
2023-04-14T01:35:13.413Z,39.29
2023-04-14T01:45:23.592Z,39.20
2023-04-14T01:55:26.735Z,39.36
2023-04-14T02:05:28.230Z,39.39
2023-04-14T02:15:29.728Z,39.40
2023-04-14T02:25:32.400Z,39.37
2023-04-14T02:35:46.056Z,39.56
2023-04-14T02:45:49.150Z,39.67
2023-04-14T02:55:51.844Z,39.68
2023-04-14T03:05:53.231Z,39.86
2023-04-14T03:15:55.953Z,39.58
2023-04-14T03:25:57.384Z,39.89
2023-04-14T03:35:58.826Z,39.73
2023-04-14T03:46:00.468Z,39.80
2023-04-14T03:56:02.481Z,39.85
2023-04-14T04:06:04.023Z,39.83
2023-04-14T04:16:05.850Z,40.04
2023-04-14T04:26:07.828Z,39.44
2023-04-14T04:36:09.245Z,39.24
2023-04-14T04:46:38.179Z,38.72
2023-04-14T04:56:39.791Z,38.45
2023-04-14T05:06:41.300Z,38.13
2023-04-14T05:16:42.692Z,37.95
2023-04-14T05:27:01.534Z,38.06
2023-04-14T05:37:05.477Z,38.10
2023-04-14T05:47:06.949Z,37.87
2023-04-14T05:57:08.379Z,37.72
2023-04-14T06:07:09.779Z,37.56
2023-04-14T06:17:11.175Z,36.79
2023-04-14T06:27:12.759Z,36.01
2023-04-14T06:37:15.084Z,35.30
2023-04-14T06:47:20.781Z,34.87
2023-04-14T06:57:29.730Z,34.43
2023-04-14T07:07:37.455Z,34.06
2023-04-14T07:17:39.075Z,33.35
2023-04-14T07:27:49.783Z,33.00
2023-04-14T07:37:57.868Z,32.40
2023-04-14T07:47:59.443Z,31.86
2023-04-14T07:58:01.385Z,31.58
2023-04-14T08:08:03.245Z,31.25
2023-04-14T08:18:05.318Z,30.83
2023-04-14T08:28:07.018Z,30.12
2023-04-14T08:38:08.639Z,29.68
2023-04-14T08:48:10.199Z,28.79
2023-04-14T08:58:11.774Z,27.05
2023-04-14T09:08:13.644Z,25.52
2023-04-14T09:18:15.059Z,20.73
2023-04-14T09:28:16.609Z,20.61
2023-04-14T09:38:39.423Z,23.52
2023-04-14T09:48:51.956Z,24.94
2023-04-14T09:58:57.041Z,26.52
2023-04-14T10:08:58.993Z,28.55
2023-04-14T10:19:01.744Z,29.53
2023-04-14T10:29:03.833Z,30.33
2023-04-14T10:39:06.009Z,30.55
2023-04-14T10:49:08.056Z,30.67
2023-04-14T10:59:09.449Z,31.00
2023-04-14T11:09:38.902Z,31.17
2023-04-14T11:19:40.783Z,31.46
2023-04-14T11:29:42.530Z,31.46
2023-04-14T11:39:44.282Z,31.31
2023-04-14T11:49:45.959Z,31.51
2023-04-14T11:59:47.455Z,31.63
2023-04-14T12:09:50.598Z,31.75
2023-04-14T12:19:52.175Z,31.27
2023-04-14T12:29:53.561Z,31.28
2023-04-14T12:40:00.245Z,31.63
2023-04-14T12:50:21.310Z,31.71
2023-04-14T13:00:23.463Z,32.05
2023-04-14T13:10:24.858Z,32.05
2023-04-14T13:20:26.447Z,31.92
2023-04-14T13:30:28.008Z,32.23
2023-04-14T13:40:29.573Z,32.21
2023-04-14T13:50:31.287Z,32.16
2023-04-14T14:00:32.696Z,31.83
2023-04-14T14:10:34.133Z,31.69
2023-04-14T14:20:35.740Z,31.72
2023-04-14T14:30:37.247Z,31.71
2023-04-14T14:40:38.799Z,31.85
2023-04-14T14:50:40.437Z,32.00
2023-04-14T15:00:42.057Z,31.80
2023-04-14T15:10:44.020Z,31.19
2023-04-14T15:20:45.597Z,31.64
2023-04-14T15:30:47.009Z,31.77
2023-04-14T15:40:48.450Z,31.76
2023-04-14T15:50:49.831Z,31.75
2023-04-14T16:00:51.250Z,31.87
2023-04-14T16:10:53.372Z,31.52
2023-04-14T16:20:54.758Z,32.06
2023-04-14T16:31:01.831Z,32.19
2023-04-14T16:41:03.364Z,32.08
2023-04-14T16:51:08.498Z,32.14
2023-04-14T17:01:10.470Z,32.12
2023-04-14T17:11:12.143Z,32.23
2023-04-14T17:21:13.506Z,32.26
2023-04-14T17:31:15.531Z,32.27
2023-04-14T17:41:17.124Z,32.66
2023-04-14T17:51:18.846Z,32.66
2023-04-14T18:01:21.810Z,32.91
2023-04-14T18:11:24.301Z,33.01
2023-04-14T18:21:27.499Z,33.20
2023-04-14T18:31:29.180Z,33.23
2023-04-14T18:41:30.593Z,33.46
2023-04-14T18:51:32.685Z,33.61
2023-04-14T19:01:35.880Z,33.70
2023-04-14T19:11:37.479Z,33.90
2023-04-14T19:21:40.954Z,33.97
2023-04-14T19:31:42.717Z,34.25
2023-04-14T19:41:44.163Z,34.43
2023-04-14T19:51:45.568Z,34.63
2023-04-14T20:01:48.493Z,34.91
2023-04-14T20:11:49.920Z,34.97
2023-04-14T20:21:51.353Z,35.14
2023-04-14T20:31:53.389Z,35.24
2023-04-14T20:41:54.803Z,35.43
2023-04-14T20:51:58.318Z,35.50
2023-04-14T21:01:59.845Z,35.68
2023-04-14T21:12:14.827Z,35.81
2023-04-14T21:22:17.746Z,35.81
2023-04-14T21:32:19.278Z,35.82
2023-04-14T21:42:20.867Z,35.93
2023-04-14T21:52:22.256Z,35.95
2023-04-14T22:02:23.801Z,35.94
2023-04-14T22:12:25.241Z,35.96
2023-04-14T22:22:27.126Z,36.13
2023-04-14T22:32:28.752Z,36.19
2023-04-14T22:42:30.265Z,36.13
2023-04-14T22:52:31.785Z,36.03
2023-04-14T23:02:33.285Z,36.24
2023-04-14T23:12:35.026Z,36.25
2023-04-14T23:22:36.631Z,36.33
2023-04-14T23:32:38.079Z,36.41
2023-04-14T23:42:39.719Z,36.52
2023-04-14T23:52:41.419Z,36.50
